Etusivu
METAR-TAF:

METAR-TAF

Lentoasemat :

Rabat, Marokko

Leveyspiiri: 34-03N, Pituuspiiri: 006-46W, korkeus merenpinnasta: 84 m

Tämänhetkinen sää

Tämä raportti tehtiin 23 minuuttia sitten, kello 14.00 UTC
Tuuli 7 kn lännestä/lounaasta
Lämpötila 27°C
Kosteus 70%
Ilmanpaine 1010 hPa
Näkyvyys: 8000 m

METAR: GMME 141400Z 25007KT 8000 NSC 27/21 Q1010 NOSIG

Aika: 15:23 (14:23 UTC)

Sääennuste

Tämä raportti tehtiin 3 tuntia ja 23 minuuttia sitten, kello 11.00 UTC
Ennuste voimassa 14. päivästä klo 12 UTC - 15. päivään klo 18 UTC
Tuuli 10 kn lännestä/luoteesta
Näkyvyys: 8000 m
Hajanaisia pilviä 2300 ft:n korkeudessa
Ajoittain
14. päivästä klo 20 UTC - 15. päivään klo 07 UTC
Tuuli 6 kn lounaasta
Näkyvyys: 5000 m
Hajonneita pilviä 1600 ft:n korkeudessa

TAF: GMME 141100Z 1412/1518 30010KT 8000 SCT023 TEMPO 1420/1507 23006KT 5000 BKN016

Säähavainnot ja -ennusteet yli 4000 lentoasemalta (METAR- ja TAF-raportit).

Käytössä olevat sääasemat on merkitty karttaan keltaisilla ja punaisilla pisteillä.

Aseta hiiri pisteen päälle nähdäksesi sääaseman nimen.

Klikkaa sitten nähdäksesi säähavainnot ja -ennusteet.

Kartan vaihtaminen: klikkaa mustalla rastilla varustettuja vihreitä pisteitä, niin voit zoomata sisään; viivalla varustettua vihreää pistettä, niin voit zoomata ulos tai vihreitä nuolia, niin pääset viereisille kartoille.


METAR-TAF: